Aeroporto :
LOGIN :

Iscrizione | Disclaimer

   EN    FR    IT 

 










Sommario :    VFR   VFR Marginale   IFR   IFR Intensivo   IFR Molto Intensivo
Visibilità : 
Base nubi : 
>= 8 km
>= 3000ft
5 / 8 km
1000 / 3000 ft
1500m / 5 km
500 / 1000 ft
800 / 1500m
200 / 500 ft
< 800m
< 200 ft
Simboli :   Temporali  Nebbia  Neve Forte  Precipitazioni Forti  Vento > 20 kt
SIGMETs :   Varie  Temporali  Ghiacco  Turbolenza  Onda orograficha  Ceneri Vulcaniche






- Altitudine del aeroporto : 870 ft
- Codice IATA : ETZ


LFJL - Metz Nancy Lorraine

ULTIMO METAR :
  • 250830Z AUTO 00000KT 0300 R22/0375N R04/0375N FZFG VV/// M01/M01 Q1033 TEMPO 6000 NSW BKN008

METARs OBSOLETI :
  • 250800Z AUTO VRB02KT 0350 R22/0500U R04/0450N FZFG VV/// M01/M01 Q1033 NOSIG
  • 250730Z AUTO 00000KT 0750 0500 R22/1000D R04/0550D FZFG VV/// M02/M02 Q1032 TEMPO 0200 FZFG
  • 250700Z AUTO 00000KT 2500 BR OVC002 M02/M02 Q1032 TEMPO 0200 FZFG VV///
  • 250630Z AUTO 00000KT 2400 BR OVC002 M03/M03 Q1032 TEMPO 0200 FZFG BECMG VV///
  • 250600Z AUTO VRB02KT 0550 0500 R22/0900U R04/0600N FZFG VV/// M03/M03 Q1032 TEMPO 0200 FZFG

TAF AMD TAF LFJL
Valido dal 25 a 06 ore il 26 a 06 ore UTC


250636Z 2506/2606 VRB03KT 3000 BR OVC004
TEMPO 2506/2510 0200 FZFG VV///
TEMPO 2510/2512 6000 NSW BKN008
BECMG 2512/2515 CAVOK
BECMG 2520/2523 3000 BR
TEMPO 2600/2606 0300 FZFG VV///



MetMap, La meteo Aeronautica in un colpo d'occhio ! - Copyright ORBIFLY Dicembre 2007 - Disclaimer

ORBIFLY MET'MAP TEAM :

Programmazione e sviluppo : Alexandra Zaïnal
Concezione : Baudouin d'Aumeries
Supporto tecnico e logistico : Manuel Goepfert
Aiuto : Marc-Olivier Méhu
Aiuto per la traduzione : Arnaldo La Scala

Contatto : metmap@orbifly.com




FONTI E CREDITI :

   NOAA